Time;durP1;ratioP1;P1;durP2;ratioP2;P2;SDS_P1;SDS_P2;PMS_P1;PMS_P2;Temp;Humidity;BMP_temperature;BMP_pressure;BME280_temperature;BME280_humidity;BME280_pressure;Samples;Min_cycle;Max_cycle;Signal;HPM_P1;HPM_P2
2021/06/12 00:02:01;;;;;;;3.78;2.22;;;19.50;99.90;;;;;;4901755;29;20052;-92
2021/06/12 00:04:30;;;;;;;6.18;2.30;;;19.40;99.90;;;;;;4866337;29;20052;-93
2021/06/12 00:07:01;;;;;;;4.53;2.17;;;19.40;99.90;;;;;;4896169;29;20056;-92
2021/06/12 00:09:31;;;;;;;;;;;19.40;99.90;;;;;;4892359;29;20490;-93
2021/06/12 00:12:01;;;;;;;3.83;2.80;;;20.50;99.90;;;;;;4880825;29;20375;-94
2021/06/12 00:14:31;;;;;;;4.95;2.45;;;19.30;99.90;;;;;;4893379;29;20049;-93
2021/06/12 00:17:01;;;;;;;8.43;2.53;;;19.30;99.90;;;;;;4875988;29;20052;-93
2021/06/12 00:19:42;;;;;;;5.55;2.40;;;19.20;99.90;;;;;;4889523;29;20040;-92
2021/06/12 00:22:13;;;;;;;3.47;2.28;;;19.20;99.90;;;;;;4920317;29;20044;-93
2021/06/12 00:24:43;;;;;;;5.97;2.22;;;19.20;99.90;;;;;;4920171;29;20159;-91
2021/06/12 00:27:17;;;;;;;3.20;1.80;;;19.10;99.90;;;;;;4903348;29;20060;-92
2021/06/12 00:29:48;;;;;;;;;;;19.10;99.90;;;;;;4878454;29;20048;-92
2021/06/12 00:32:17;;;;;;;5.30;1.92;;;19.10;99.90;;;;;;4879588;29;19934;-90
2021/06/12 00:34:45;;;;;;;2.92;2.00;;;19.10;99.90;;;;;;4879605;29;20063;-92
2021/06/12 00:37:14;;;;;;;3.30;2.15;;;19.00;99.90;;;;;;4886754;29;20053;-93
2021/06/12 00:39:42;;;;;;;3.63;1.95;;;18.90;99.90;;;;;;4910775;29;20056;-92
2021/06/12 00:42:15;;;;;;;4.53;2.33;;;18.60;99.90;;;;;;4872597;29;20402;-92
2021/06/12 00:44:46;;;;;;;3.40;1.90;;;18.90;99.90;;;;;;4885925;29;20052;-91
2021/06/12 00:47:17;;;;;;;2.95;1.83;;;18.90;99.90;;;;;;4896082;29;20261;-92
2021/06/12 00:49:48;;;;;;;4.32;2.38;;;18.90;99.90;;;;;;4888475;29;20063;-90
2021/06/12 00:52:20;;;;;;;3.10;1.95;;;18.80;99.90;;;;;;4912204;29;20060;-90
2021/06/12 00:54:49;;;;;;;8.73;2.00;;;18.80;99.90;;;;;;4888261;29;20059;-89
2021/06/12 00:57:19;;;;;;;2.53;2.33;;;18.80;99.90;;;;;;4859584;29;20068;-91
2021/06/12 00:59:51;;;;;;;2.35;2.00;;;18.80;99.90;;;;;;4862109;29;20809;-91
2021/06/12 01:02:21;;;;;;;5.70;2.35;;;18.80;99.90;;;;;;4887600;29;20063;-92
2021/06/12 01:04:56;;;;;;;4.20;2.13;;;18.80;99.90;;;;;;4874930;29;20055;-92
2021/06/12 01:07:26;;;;;;;3.55;2.25;;;18.70;99.90;;;;;;4887274;29;20060;-92
2021/06/12 01:09:58;;;;;;;4.88;3.08;;;18.70;99.90;;;;;;4904646;29;20071;-91
2021/06/12 01:13:13;;;;;;;6.40;3.03;;;18.60;99.90;;;;;;4881049;29;20044;-91
2021/06/12 01:15:57;;;;;;;3.58;2.47;;;18.50;99.90;;;;;;4872552;29;20063;-93
2021/06/12 01:18:34;;;;;;;9.45;2.45;;;18.50;99.90;;;;;;4905403;29;20060;-92
2021/06/12 01:21:27;;;;;;;6.93;3.03;;;18.40;99.90;;;;;;4909579;29;20057;-93
2021/06/12 01:24:19;;;;;;;3.67;2.17;;;18.40;99.90;;;;;;4890083;29;20048;-93
2021/06/12 01:27:06;;;;;;;6.63;2.70;;;17.30;99.90;;;;;;4879251;29;20062;-92
2021/06/12 01:30:13;;;;;;;4.72;2.63;;;18.20;99.90;;;;;;4890570;29;20066;-92
2021/06/12 01:32:49;;;;;;;6.38;2.42;;;18.20;99.90;;;;;;4908724;29;20064;-92
2021/06/12 01:35:34;;;;;;;2.60;1.80;;;17.80;99.90;;;;;;4862951;29;20055;-91
2021/06/12 01:38:09;;;;;;;6.53;2.50;;;18.00;99.90;;;;;;4861875;29;20087;-93
2021/06/12 01:40:44;;;;;;;6.10;3.63;;;18.00;99.90;;;;;;4872431;29;20549;-92
2021/06/12 01:43:17;;;;;;;2.78;2.30;;;17.90;99.90;;;;;;4898825;29;20441;-90
2021/06/12 01:45:47;;;;;;;3.22;2.10;;;17.90;99.90;;;;;;4875409;29;20056;-91
2021/06/12 01:48:17;;;;;;;3.95;2.60;;;17.80;99.90;;;;;;4905674;29;20059;-91
2021/06/12 01:50:45;;;;;;;4.93;2.58;;;17.80;99.90;;;;;;4872014;29;20049;-91
2021/06/12 01:53:20;;;;;;;3.65;2.40;;;17.80;99.90;;;;;;4869537;29;20490;-90
2021/06/12 01:55:48;;;;;;;3.40;2.20;;;17.70;99.90;;;;;;4883761;29;20044;-91
2021/06/12 01:58:22;;;;;;;3.72;2.63;;;17.70;99.90;;;;;;4905130;29;20056;-91
2021/06/12 02:00:53;;;;;;;7.28;2.90;;;17.70;99.90;;;;;;4898011;29;20068;-92
2021/06/12 02:03:24;;;;;;;3.25;2.25;;;17.70;99.90;;;;;;4886540;29;20045;-91
2021/06/12 02:05:54;;;;;;;3.47;2.17;;;17.60;99.90;;;;;;4888813;29;20493;-92
2021/06/12 02:08:22;;;;;;;4.95;2.35;;;17.60;99.90;;;;;;4851831;29;20053;-92
2021/06/12 02:10:51;;;;;;;5.80;2.92;;;17.60;99.90;;;;;;4864982;29;20060;-91
2021/06/12 02:13:29;;;;;;;5.28;2.88;;;17.50;99.90;;;;;;4883561;29;20056;-91
2021/06/12 02:15:59;;;;;;;3.55;2.38;;;17.50;99.90;;;;;;4883299;29;20071;-91
2021/06/12 02:18:28;;;;;;;4.18;2.70;;;17.40;99.90;;;;;;4869790;29;20057;-91
2021/06/12 02:20:57;;;;;;;4.90;2.85;;;17.40;99.90;;;;;;4888337;29;20436;-91
2021/06/12 02:23:28;;;;;;;4.35;2.95;;;17.30;99.90;;;;;;4888740;29;20061;-92
2021/06/12 02:25:57;;;;;;;5.80;2.50;;;17.30;99.90;;;;;;4881213;29;20354;-91
2021/06/12 02:28:34;;;;;;;5.30;2.85;;;17.20;99.90;;;;;;4908005;29;20045;-92
2021/06/12 02:31:08;;;;;;;4.45;3.00;;;17.20;99.90;;;;;;4887191;29;20048;-91
2021/06/12 02:33:37;;;;;;;6.95;3.05;;;17.20;99.90;;;;;;4889865;29;20056;-92
2021/06/12 02:36:05;;;;;;;5.53;3.55;;;17.10;99.90;;;;;;4872211;29;20056;-92
2021/06/12 02:38:34;;;;;;;6.47;3.13;;;17.10;99.90;;;;;;4880481;29;20060;-90
2021/06/12 02:41:02;;;;;;;3.75;2.47;;;17.10;99.90;;;;;;4877377;29;20067;-90
2021/06/12 02:43:32;;;;;;;6.07;3.65;;;17.10;99.90;;;;;;4903221;29;20056;-91
2021/06/12 02:46:14;;;;;;;10.00;4.15;;;17.00;99.90;;;;;;4905224;29;20056;-92
2021/06/12 02:48:44;;;;;;;10.75;5.13;;;17.00;99.90;;;;;;4890439;29;20064;-91
2021/06/12 02:51:13;;;;;;;8.68;4.55;;;17.00;99.90;;;;;;4872162;29;20048;-91
2021/06/12 02:53:44;;;;;;;9.80;3.92;;;16.90;99.90;;;;;;4882633;29;20080;-91
2021/06/12 02:56:17;;;;;;;7.78;3.47;;;16.90;99.90;;;;;;4885288;29;20048;-91
2021/06/12 02:58:46;;;;;;;6.10;3.22;;;16.80;99.90;;;;;;4877116;29;20052;-91
2021/06/12 03:01:18;;;;;;;8.18;3.55;;;16.80;99.90;;;;;;4907069;29;20516;-90
2021/06/12 03:03:48;;;;;;;9.00;4.32;;;16.70;99.90;;;;;;4890348;29;20068;-92
2021/06/12 03:06:20;;;;;;;7.80;3.88;;;16.70;99.90;;;;;;4901802;29;20079;-91
2021/06/12 03:08:52;;;;;;;8.23;3.92;;;16.70;99.90;;;;;;4886981;29;20064;-91
2021/06/12 03:11:23;;;;;;;7.85;4.55;;;16.60;99.90;;;;;;4908550;29;20059;-91
2021/06/12 03:13:53;;;;;;;;;;;16.60;99.90;;;;;;4871100;29;20060;-91
2021/06/12 03:16:22;;;;;;;6.95;3.92;;;16.60;99.90;;;;;;4883318;29;19924;-91
2021/06/12 03:18:51;;;;;;;8.02;4.55;;;16.50;99.90;;;;;;4897956;29;20052;-91
2021/06/12 03:21:24;;;;;;;7.03;4.72;;;16.50;99.90;;;;;;4852706;29;20053;-90
2021/06/12 03:23:53;;;;;;;11.02;4.70;;;16.50;99.90;;;;;;4884462;29;20064;-91
2021/06/12 03:26:23;;;;;;;10.60;4.32;;;16.40;99.90;;;;;;4880634;29;20049;-90
2021/06/12 03:28:53;;;;;;;9.65;4.07;;;15.70;99.90;;;;;;4873302;29;20053;-91
2021/06/12 03:31:27;;;;;;;8.48;3.95;;;16.40;99.90;;;;;;4898738;29;20064;-91
2021/06/12 03:33:55;;;;;;;6.93;4.00;;;16.40;99.90;;;;;;4896807;29;20597;-91
2021/06/12 03:36:25;;;;;;;8.98;4.32;;;16.40;99.90;;;;;;4869795;29;20060;-90
2021/06/12 03:38:54;;;;;;;7.82;4.22;;;16.40;99.90;;;;;;4869965;29;20045;-92
2021/06/12 03:41:24;;;;;;;9.85;4.38;;;16.40;99.90;;;;;;4882286;29;20057;-90
2021/06/12 03:43:52;;;;;;;10.97;4.97;;;16.50;99.90;;;;;;4866375;29;20068;-91
2021/06/12 03:46:21;;;;;;;8.63;5.03;;;16.40;99.90;;;;;;4853310;29;20045;-91
2021/06/12 03:48:51;;;;;;;8.75;4.70;;;16.40;99.90;;;;;;4865784;29;20061;-91
2021/06/12 03:51:21;;;;;;;11.45;5.18;;;16.40;99.90;;;;;;4884350;29;20065;-91
2021/06/12 03:53:49;;;;;;;7.45;3.58;;;16.40;99.90;;;;;;4865165;29;20071;-91
2021/06/12 03:56:22;;;;;;;9.52;4.72;;;15.20;99.90;;;;;;4841189;29;20064;-91
2021/06/12 03:58:51;;;;;;;9.88;4.50;;;16.40;99.90;;;;;;4878190;29;20061;-91
2021/06/12 04:01:20;;;;;;;8.30;4.30;;;16.40;99.90;;;;;;4862931;29;20080;-91
2021/06/12 04:03:51;;;;;;;10.10;4.32;;;16.60;99.90;;;;;;4859679;29;20060;-92
2021/06/12 04:06:20;;;;;;;11.20;5.10;;;16.40;99.90;;;;;;4868738;29;20060;-91
2021/06/12 04:08:50;;;;;;;10.75;4.70;;;16.30;99.90;;;;;;4876408;29;20540;-91
2021/06/12 04:11:18;;;;;;;10.68;4.63;;;16.30;99.90;;;;;;4867106;29;20046;-90
2021/06/12 04:13:47;;;;;;;9.98;4.90;;;16.10;99.90;;;;;;4831535;29;20069;-89
2021/06/12 04:16:15;;;;;;;10.70;4.82;;;16.30;99.90;;;;;;4869974;29;20045;-91
2021/06/12 04:18:46;;;;;;;7.68;4.72;;;16.20;99.90;;;;;;4869745;29;20382;-91
2021/06/12 04:21:14;;;;;;;9.00;4.55;;;16.20;99.90;;;;;;4865466;29;20056;-89
2021/06/12 04:23:46;;;;;;;18.90;5.35;;;16.20;99.90;;;;;;4854379;29;20060;-90
2021/06/12 04:26:14;;;;;;;;;;;16.20;99.90;;;;;;4868651;29;20064;-91
2021/06/12 04:28:41;;;;;;;9.60;4.45;;;16.20;99.90;;;;;;4883267;29;19924;-90
2021/06/12 04:31:13;;;;;;;15.52;5.80;;;16.10;99.90;;;;;;4882565;29;20068;-90
2021/06/12 04:33:41;;;;;;;11.77;5.78;;;16.10;99.90;;;;;;4865702;29;20127;-89
2021/06/12 04:36:10;;;;;;;12.70;5.47;;;16.10;99.90;;;;;;4871813;29;20068;-91
2021/06/12 04:38:37;;;;;;;9.60;6.05;;;16.10;99.90;;;;;;4865643;29;20052;-91
2021/06/12 04:41:06;;;;;;;11.77;6.15;;;16.10;99.90;;;;;;4863442;29;20053;-90
2021/06/12 04:43:34;;;;;;;12.95;6.53;;;16.00;99.90;;;;;;4851286;29;20057;-91
2021/06/12 04:46:02;;;;;;;15.35;6.53;;;16.00;99.90;;;;;;4880897;29;20449;-90
2021/06/12 04:48:30;;;;;;;11.73;5.18;;;16.00;99.90;;;;;;4845372;29;20061;-90
2021/06/12 04:51:00;;;;;;;16.00;6.32;;;16.00;99.90;;;;;;4847724;29;20484;-90
2021/06/12 04:53:30;;;;;;;12.90;5.80;;;16.00;99.90;;;;;;4866020;29;20562;-90
2021/06/12 04:56:00;;;;;;;12.60;5.53;;;16.10;99.90;;;;;;4882652;29;20437;-91
2021/06/12 04:58:28;;;;;;;17.05;5.85;;;16.10;99.90;;;;;;4862359;29;20063;-91
2021/06/12 05:00:56;;;;;;;11.68;5.40;;;16.10;99.90;;;;;;4886402;29;20509;-90
2021/06/12 05:03:24;;;;;;;11.80;5.82;;;16.10;99.90;;;;;;4890867;29;20061;-90
2021/06/12 05:05:52;;;;;;;11.57;6.15;;;16.20;99.90;;;;;;4868407;29;20049;-90
2021/06/12 05:08:20;;;;;;;14.07;5.70;;;16.20;99.90;;;;;;4860299;29;20442;-89
2021/06/12 05:10:48;;;;;;;13.85;5.82;;;16.30;99.90;;;;;;4879309;29;20064;-90
2021/06/12 05:13:16;;;;;;;13.68;8.02;;;16.30;99.90;;;;;;4864536;29;20053;-89
2021/06/12 05:15:43;;;;;;;13.40;6.43;;;16.30;99.90;;;;;;4889930;29;20080;-91
2021/06/12 05:18:13;;;;;;;11.25;5.75;;;16.30;99.90;;;;;;4888317;29;20068;-89
2021/06/12 05:20:41;;;;;;;17.73;6.72;;;16.30;99.90;;;;;;4871746;29;20063;-90
2021/06/12 05:23:09;;;;;;;13.05;5.70;;;16.30;99.90;;;;;;4864117;29;20049;-90
2021/06/12 05:25:38;;;;;;;15.30;6.57;;;16.40;99.90;;;;;;4869029;29;20064;-89
2021/06/12 05:28:05;;;;;;;16.08;6.95;;;16.40;99.90;;;;;;4878866;29;20052;-89
2021/06/12 05:30:34;;;;;;;16.80;6.57;;;16.40;99.90;;;;;;4879571;29;20053;-90
2021/06/12 05:33:03;;;;;;;12.07;6.10;;;16.20;99.90;;;;;;4877688;29;20060;-91
2021/06/12 05:35:31;;;;;;;13.40;6.88;;;16.40;99.90;;;;;;4878684;29;20061;-90
2021/06/12 05:38:00;;;;;;;13.93;6.53;;;16.50;99.90;;;;;;4879681;29;20052;-91
2021/06/12 05:40:28;;;;;;;16.38;7.10;;;16.50;99.90;;;;;;4877298;29;20049;-90
2021/06/12 05:42:56;;;;;;;14.80;6.80;;;16.60;99.90;;;;;;4888309;29;20057;-90
2021/06/12 05:45:24;;;;;;;17.85;7.85;;;16.60;99.90;;;;;;4896723;29;20067;-91
2021/06/12 05:47:52;;;;;;;14.05;7.03;;;16.60;99.90;;;;;;4885153;29;20060;-90
2021/06/12 05:50:20;;;;;;;15.13;7.10;;;16.60;99.90;;;;;;4881669;29;20057;-91
2021/06/12 05:52:48;;;;;;;17.52;7.97;;;16.70;99.90;;;;;;4888163;29;20052;-90
2021/06/12 05:55:16;;;;;;;16.00;7.63;;;17.50;99.90;;;;;;4895878;29;20247;-91
2021/06/12 05:57:45;;;;;;;23.75;9.38;;;16.70;99.90;;;;;;4850659;29;20064;-90
2021/06/12 06:00:13;;;;;;;12.45;6.53;;;15.70;99.90;;;;;;4896067;29;20417;-91
2021/06/12 06:02:44;;;;;;;;;;;16.80;99.90;;;;;;4877824;29;20154;-92
2021/06/12 06:05:12;;;;;;;18.52;7.43;;;16.80;99.90;;;;;;4897784;29;19943;-91
2021/06/12 06:07:41;;;;;;;16.25;6.20;;;16.90;99.90;;;;;;4908974;29;20069;-90
2021/06/12 06:10:09;;;;;;;17.08;7.13;;;16.90;99.90;;;;;;4906079;29;20068;-90
2021/06/12 06:12:37;;;;;;;14.95;7.50;;;17.00;99.90;;;;;;4884949;29;20057;-90
2021/06/12 06:15:07;;;;;;;17.90;8.45;;;17.10;99.90;;;;;;4885676;29;20578;-92
2021/06/12 06:17:34;;;;;;;15.05;7.25;;;17.10;99.90;;;;;;4885287;29;20063;-91
2021/06/12 06:20:06;;;;;;;12.60;7.00;;;18.00;99.90;;;;;;4878667;29;20053;-91
2021/06/12 06:22:34;;;;;;;17.13;6.82;;;17.10;99.90;;;;;;4858825;29;20063;-90
2021/06/12 06:25:04;;;;;;;15.57;7.47;;;17.20;99.90;;;;;;4861138;29;20053;-91
2021/06/12 06:27:32;;;;;;;15.93;8.35;;;17.30;99.90;;;;;;4863510;29;20072;-92
2021/06/12 06:30:00;;;;;;;13.35;5.85;;;17.60;99.90;;;;;;4876452;29;20061;-91
2021/06/12 06:32:29;;;;;;;13.25;6.90;;;17.30;99.90;;;;;;4887462;29;20048;-92
2021/06/12 06:34:57;;;;;;;15.45;7.32;;;17.50;99.90;;;;;;4879675;29;20052;-90
2021/06/12 06:37:25;;;;;;;13.73;6.93;;;17.40;99.90;;;;;;4861847;29;20048;-91
2021/06/12 06:39:53;;;;;;;13.60;7.05;;;17.50;99.90;;;;;;4866908;29;20053;-92
2021/06/12 06:42:21;;;;;;;15.50;7.32;;;17.60;99.90;;;;;;4891559;29;20061;-91
2021/06/12 06:44:49;;;;;;;20.38;7.25;;;17.60;99.90;;;;;;4888271;29;20053;-92
2021/06/12 06:47:17;;;;;;;18.80;7.90;;;17.70;99.90;;;;;;4874299;29;20049;-91
2021/06/12 06:49:48;;;;;;;15.97;7.37;;;17.80;99.90;;;;;;4894248;29;20060;-92
2021/06/12 06:52:16;;;;;;;16.55;7.50;;;17.80;99.90;;;;;;4898263;29;20299;-90
2021/06/12 06:54:44;;;;;;;16.27;6.70;;;17.90;99.90;;;;;;4862458;29;20053;-92
2021/06/12 06:57:12;;;;;;;18.05;8.57;;;17.90;99.90;;;;;;4886324;29;20064;-90
2021/06/12 06:59:40;;;;;;;13.57;7.22;;;18.00;99.90;;;;;;4865488;29;20064;-91
2021/06/12 07:02:09;;;;;;;16.60;6.80;;;18.00;99.90;;;;;;4881118;29;20367;-92
2021/06/12 07:04:38;;;;;;;18.67;8.82;;;18.00;99.90;;;;;;4877788;29;20063;-92
2021/06/12 07:07:06;;;;;;;20.38;7.28;;;18.10;99.90;;;;;;4859715;29;20053;-93
2021/06/12 07:09:35;;;;;;;15.77;7.50;;;18.20;99.90;;;;;;4864013;29;20504;-90
2021/06/12 07:12:03;;;;;;;15.20;7.65;;;18.20;99.90;;;;;;4869317;29;20060;-92
2021/06/12 07:14:32;;;;;;;15.55;6.90;;;18.20;99.90;;;;;;4857296;29;20513;-88
2021/06/12 07:17:02;;;;;;;15.20;6.68;;;18.30;99.90;;;;;;4863705;29;20052;-91
2021/06/12 07:19:30;;;;;;;17.58;7.70;;;18.30;99.90;;;;;;4844643;29;20052;-92
2021/06/12 07:21:58;;;;;;;22.35;7.38;;;18.60;99.90;;;;;;4884223;29;20049;-93
2021/06/12 07:24:26;;;;;;;17.75;7.22;;;18.50;99.90;;;;;;4865057;29;20053;-92
2021/06/12 07:26:54;;;;;;;15.00;7.28;;;18.60;99.90;;;;;;4899637;29;20068;-92
2021/06/12 07:29:22;;;;;;;16.33;7.63;;;18.70;99.90;;;;;;4880411;29;20060;-92
2021/06/12 07:31:50;;;;;;;17.30;6.35;;;18.70;99.90;;;;;;4885314;29;20055;-92
2021/06/12 07:34:18;;;;;;;16.00;7.25;;;18.80;99.90;;;;;;4899729;29;20521;-90
2021/06/12 07:36:46;;;;;;;13.60;7.18;;;18.90;99.90;;;;;;4880384;29;20049;-92
2021/06/12 07:39:13;;;;;;;19.55;8.63;;;19.00;99.90;;;;;;4864237;29;20521;-92
2021/06/12 07:41:45;;;;;;;24.20;7.07;;;19.00;99.90;;;;;;4897059;29;20498;-91
2021/06/12 07:44:14;;;;;;;17.10;7.13;;;19.00;99.90;;;;;;4881063;29;20060;-91
2021/06/12 07:46:42;;;;;;;14.02;7.07;;;19.00;99.90;;;;;;4850086;29;20409;-91
2021/06/12 07:49:11;;;;;;;15.32;6.63;;;19.00;99.90;;;;;;4868178;29;20070;-92
2021/06/12 07:51:40;;;;;;;15.68;6.18;;;19.00;99.90;;;;;;4886806;29;20052;-92
2021/06/12 07:54:08;;;;;;;17.42;6.97;;;19.10;99.90;;;;;;4878282;29;20052;-91
2021/06/12 07:56:36;;;;;;;15.57;6.22;;;19.20;99.90;;;;;;4869038;29;20044;-92
2021/06/12 07:59:04;;;;;;;15.93;7.07;;;19.30;99.90;;;;;;4869522;29;20064;-93
2021/06/12 08:01:33;;;;;;;14.43;6.88;;;19.40;99.90;;;;;;4893131;29;20057;-93
2021/06/12 08:04:01;;;;;;;17.60;6.90;;;19.50;99.90;;;;;;4888335;29;20063;-92
2021/06/12 08:06:29;;;;;;;19.50;6.13;;;19.60;99.90;;;;;;4900819;29;20064;-92
2021/06/12 08:08:58;;;;;;;16.63;6.80;;;19.70;99.90;;;;;;4889366;29;20060;-92
2021/06/12 08:11:28;;;;;;;11.77;6.00;;;19.80;99.90;;;;;;4864634;29;20061;-91
2021/06/12 08:13:57;;;;;;;18.42;6.28;;;19.90;99.90;;;;;;4867175;29;20064;-92
2021/06/12 08:16:25;;;;;;;14.85;5.95;;;19.90;99.90;;;;;;4882320;29;20056;-92
2021/06/12 08:18:55;;;;;;;10.27;5.57;;;19.90;99.90;;;;;;4891746;29;20052;-90
2021/06/12 08:21:24;;;;;;;17.95;6.07;;;20.00;99.90;;;;;;4898373;29;20060;-92
2021/06/12 08:23:51;;;;;;;12.20;5.32;;;20.10;99.90;;;;;;4884289;29;20071;-92
2021/06/12 08:26:19;;;;;;;13.38;5.63;;;20.20;99.90;;;;;;4876340;29;20061;-91
2021/06/12 08:28:50;;;;;;;11.00;5.68;;;20.30;99.90;;;;;;4859020;29;20045;-91
2021/06/12 08:31:18;;;;;;;14.60;5.78;;;20.40;99.90;;;;;;4878691;29;20068;-92
2021/06/12 08:33:46;;;;;;;12.00;7.28;;;20.40;99.90;;;;;;4900078;29;20052;-92
2021/06/12 08:36:14;;;;;;;11.13;5.28;;;20.40;99.90;;;;;;4896850;29;20057;-89
2021/06/12 08:38:42;;;;;;;17.52;6.50;;;20.60;99.90;;;;;;4879305;29;20056;-91
2021/06/12 08:41:10;;;;;;;17.98;6.20;;;20.70;99.90;;;;;;4863059;29;20049;-92
2021/06/12 08:43:40;;;;;;;14.38;5.25;;;20.80;99.90;;;;;;4850796;29;20116;-92
2021/06/12 08:46:25;;;;;;;13.48;6.15;;;20.90;99.90;;;;;;4863072;29;20056;-87
2021/06/12 08:48:55;;;;;;;14.80;5.90;;;20.80;99.90;;;;;;4888722;29;20075;-87
2021/06/12 08:51:23;;;;;;;15.77;7.22;;;20.80;99.90;;;;;;4875305;29;20151;-88
2021/06/12 08:53:51;;;;;;;18.50;6.25;;;20.80;99.90;;;;;;4857949;29;20187;-87
2021/06/12 08:56:20;;;;;;;14.75;6.28;;;20.90;99.90;;;;;;4857319;29;20060;-87
2021/06/12 08:58:48;;;;;;;10.85;5.43;;;20.90;99.90;;;;;;4849496;29;20053;-87
2021/06/12 09:01:21;;;;;;;20.20;8.10;;;21.00;99.90;;;;;;4891264;29;20393;-88
2021/06/12 09:03:49;;;;;;;9.85;5.32;;;20.90;99.90;;;;;;4877589;29;20495;-88
2021/06/12 09:06:20;;;;;;;16.92;6.80;;;21.00;99.90;;;;;;4875144;29;20065;-88
2021/06/12 09:08:48;;;;;;;14.88;5.45;;;21.10;99.90;;;;;;4877423;29;20057;-88
2021/06/12 09:11:19;;;;;;;13.48;5.68;;;21.10;99.90;;;;;;4868212;29;20052;-87
2021/06/12 09:13:53;;;;;;;12.87;5.87;;;21.10;99.90;;;;;;4885152;29;20059;-88
2021/06/12 09:16:35;;;;;;;11.85;6.07;;;21.10;99.90;;;;;;4899349;29;20314;-87
2021/06/12 09:19:20;;;;;;;11.90;5.28;;;21.20;99.90;;;;;;4885950;29;20679;-88
2021/06/12 09:21:50;;;;;;;15.88;5.90;;;21.30;99.90;;;;;;4876822;29;20044;-88
2021/06/12 09:24:42;;;;;;;17.20;4.63;;;21.30;99.90;;;;;;4874707;29;20060;-87
2021/06/12 09:27:16;;;;;;;11.00;5.80;;;21.50;99.90;;;;;;4892314;29;20442;-88
2021/06/12 09:29:51;;;;;;;13.70;4.50;;;21.60;99.90;;;;;;4890991;29;20040;-88
2021/06/12 09:32:21;;;;;;;18.95;4.82;;;21.60;99.90;;;;;;4871323;29;20064;-86
2021/06/12 09:34:51;;;;;;;19.88;5.38;;;21.50;99.90;;;;;;4896741;29;20108;-88
2021/06/12 09:37:28;;;;;;;21.08;5.20;;;21.60;99.90;;;;;;4866095;29;20075;-86
2021/06/12 09:39:57;;;;;;;10.45;4.22;;;21.60;99.70;;;;;;4891268;29;20056;-89
2021/06/12 09:42:45;;;;;;;10.82;4.13;;;21.70;99.60;;;;;;4874800;29;20071;-87
2021/06/12 09:45:26;;;;;;;14.50;4.75;;;21.80;99.30;;;;;;4885822;29;20057;-89
2021/06/12 09:48:16;;;;;;;9.50;4.57;;;21.90;99.20;;;;;;4889273;29;20060;-86
2021/06/12 09:50:46;;;;;;;15.48;5.22;;;21.90;98.60;;;;;;4891072;29;20057;-87
2021/06/12 09:53:19;;;;;;;12.45;5.50;;;22.00;99.10;;;;;;4889441;29;20060;-87
2021/06/12 09:55:48;;;;;;;15.80;5.68;;;21.90;98.50;;;;;;4870594;29;20057;-87
2021/06/12 09:58:16;;;;;;;20.50;6.25;;;21.90;98.70;;;;;;4857032;29;20053;-87
2021/06/12 10:00:47;;;;;;;13.82;4.55;;;21.90;98.40;;;;;;4886453;29;20045;-85
2021/06/12 10:03:21;;;;;;;12.40;5.55;;;21.80;98.30;;;;;;4882627;29;20052;-86
2021/06/12 10:06:14;;;;;;;10.20;4.38;;;21.90;98.20;;;;;;4880089;29;20422;-87
2021/06/12 10:08:49;;;;;;;14.88;5.35;;;21.90;97.50;;;;;;4880094;29;20060;-86
2021/06/12 10:11:21;;;;;;;13.23;4.32;;;21.90;97.90;;;;;;4888739;29;20064;-85
2021/06/12 10:13:49;;;;;;;8.88;5.03;;;21.90;97.80;;;;;;4865849;29;20112;-86
2021/06/12 10:16:18;;;;;;;11.18;5.00;;;22.00;97.60;;;;;;4868173;29;20048;-85
2021/06/12 10:18:50;;;;;;;9.55;4.43;;;22.20;97.50;;;;;;4868056;29;20059;-85
2021/06/12 10:21:18;;;;;;;11.30;3.95;;;22.30;97.20;;;;;;4888644;29;20067;-86
2021/06/12 10:23:47;;;;;;;16.98;4.50;;;22.40;96.90;;;;;;4870635;29;20068;-86
2021/06/12 10:26:19;;;;;;;12.63;4.80;;;22.50;96.90;;;;;;4888778;29;20297;-85
2021/06/12 10:28:47;;;;;;;15.18;4.70;;;22.50;96.10;;;;;;4892814;29;20048;-85
2021/06/12 10:31:23;;;;;;;8.70;4.22;;;22.60;96.20;;;;;;4887474;29;20061;-85
2021/06/12 10:33:53;;;;;;;13.73;4.88;;;22.70;95.30;;;;;;4883959;29;20074;-84
2021/06/12 10:36:27;;;;;;;13.77;3.97;;;22.70;95.60;;;;;;4856768;29;20049;-84
2021/06/12 10:38:56;;;;;;;11.45;4.10;;;22.80;94.70;;;;;;4891086;29;20064;-84
2021/06/12 10:41:35;;;;;;;12.13;4.95;;;22.90;94.50;;;;;;4859634;29;20389;-85
2021/06/12 10:44:07;;;;;;;14.95;3.70;;;23.10;94.20;;;;;;4885963;29;20060;-86
2021/06/12 10:46:45;;;;;;;11.35;3.80;;;23.20;94.10;;;;;;4869531;29;20052;-84
2021/06/12 10:49:27;;;;;;;12.32;4.28;;;23.40;93.00;;;;;;4891851;29;20052;-86
2021/06/12 10:51:55;;;;;;;16.30;4.57;;;23.40;92.90;;;;;;4877502;29;20053;-85
2021/06/12 10:54:26;;;;;;;8.68;3.97;;;23.50;92.80;;;;;;4888505;29;20057;-85
2021/06/12 10:57:02;;;;;;;15.95;3.78;;;23.60;92.30;;;;;;4877602;29;20060;-87
2021/06/12 10:59:48;;;;;;;6.72;3.17;;;23.60;91.90;;;;;;4869318;29;20041;-87
2021/06/12 11:05:02;;;;;;;15.05;3.88;;;23.80;92.30;;;;;;4896700;29;20057;-84
2021/06/12 11:07:33;;;;;;;8.60;4.00;;;24.00;92.20;;;;;;4890849;29;20056;-86
2021/06/12 11:10:11;;;;;;;8.70;3.17;;;24.20;91.90;;;;;;4876144;29;20049;-85
2021/06/12 11:12:43;;;;;;;11.10;4.65;;;24.40;91.40;;;;;;4880306;29;20178;-84
2021/06/12 11:15:13;;;;;;;9.07;4.35;;;24.40;91.20;;;;;;4875471;29;20048;-83
2021/06/12 11:17:43;;;;;;;8.23;3.47;;;24.30;90.60;;;;;;4879685;29;20060;-86
2021/06/12 11:20:10;;;;;;;8.90;4.20;;;24.30;90.60;;;;;;4878848;29;20215;-83
2021/06/12 11:22:54;;;;;;;9.30;4.38;;;24.40;90.60;;;;;;4882839;29;20052;-86
2021/06/12 11:25:25;;;;;;;10.05;3.97;;;24.30;89.60;;;;;;4885107;29;20634;-84
2021/06/12 11:28:13;;;;;;;9.23;4.45;;;24.30;90.00;;;;;;4858862;29;20057;-85
2021/06/12 11:30:41;;;;;;;9.80;3.83;;;24.30;89.90;;;;;;4887797;29;20048;-85
2021/06/12 11:33:14;;;;;;;12.23;3.65;;;24.40;89.40;;;;;;4873954;29;20067;-85
2021/06/12 11:35:47;;;;;;;9.43;3.45;;;24.50;89.30;;;;;;4877904;29;20075;-86
2021/06/12 11:38:35;;;;;;;8.52;3.38;;;24.60;88.30;;;;;;4875186;29;20572;-86
2021/06/12 11:41:06;;;;;;;12.25;3.92;;;24.60;87.50;;;;;;4873608;29;20456;-85
2021/06/12 11:43:43;;;;;;;6.88;2.97;;;24.70;87.90;;;;;;4891867;29;20386;-84
2021/06/12 11:46:19;;;;;;;11.60;3.92;;;24.80;87.60;;;;;;4857970;29;20698;-84
2021/06/12 11:48:50;;;;;;;6.95;2.58;;;24.70;86.90;;;;;;4878466;29;20060;-84
2021/06/12 11:51:27;;;;;;;7.95;3.40;;;24.60;85.90;;;;;;4889284;29;20095;-85
2021/06/12 11:54:09;;;;;;;7.57;2.92;;;24.60;85.90;;;;;;4891250;29;20061;-85
2021/06/12 11:56:54;;;;;;;9.95;2.38;;;24.60;84.20;;;;;;4895906;29;20054;-85
2021/06/12 11:59:25;;;;;;;8.65;3.15;;;24.70;85.00;;;;;;4881367;29;20567;-84
2021/06/12 12:02:01;;;;;;;;;;;24.80;84.30;;;;;;4890786;29;20059;-87
2021/06/12 12:04:39;;;;;;;8.95;2.70;;;24.80;83.20;;;;;;4867875;29;19938;-83
2021/06/12 12:07:11;;;;;;;9.05;2.80;;;24.90;83.90;;;;;;4889884;29;20383;-84
2021/06/12 12:09:43;;;;;;;11.32;4.18;;;25.00;83.90;;;;;;4885559;29;20487;-82
2021/06/12 12:12:15;;;;;;;7.82;3.03;;;25.20;84.20;;;;;;4884972;29;20073;-84
2021/06/12 12:14:46;;;;;;;6.10;2.75;;;25.20;82.50;;;;;;4888933;29;20075;-83
2021/06/12 12:17:25;;;;;;;10.38;2.78;;;25.30;81.10;;;;;;4896674;29;20162;-84
2021/06/12 12:20:02;;;;;;;12.48;2.88;;;25.30;80.00;;;;;;4881472;29;20409;-84
2021/06/12 12:22:39;;;;;;;13.13;3.20;;;25.40;80.00;;;;;;4867622;29;20060;-85
2021/06/12 12:25:12;;;;;;;7.15;2.85;;;25.40;78.70;;;;;;4890646;29;20060;-86
2021/06/12 12:27:43;;;;;;;11.48;3.35;;;25.40;79.00;;;;;;4868986;29;20076;-86
2021/06/12 12:30:26;;;;;;;6.70;2.78;;;25.40;79.60;;;;;;4875624;29;20045;-85
2021/06/12 12:33:05;;;;;;;14.77;3.63;;;25.50;79.00;;;;;;4862332;29;20149;-86
2021/06/12 12:35:34;;;;;;;13.20;2.88;;;25.50;78.60;;;;;;4890376;29;20295;-85
2021/06/12 12:38:20;;;;;;;7.60;2.30;;;25.40;79.10;;;;;;4876388;29;20060;-84
2021/06/12 12:40:50;;;;;;;8.32;2.45;;;25.50;78.90;;;;;;4866667;29;20060;-84
2021/06/12 12:43:19;;;;;;;8.63;2.63;;;25.40;79.50;;;;;;4874202;29;20064;-87
2021/06/12 12:45:48;;;;;;;11.15;2.33;;;25.40;78.70;;;;;;4890037;29;20067;-85
2021/06/12 13:11:21;;;;;;;5.07;1.90;;;26.30;74.40;;;;;;5641512;23;20040;-90
2021/06/12 13:18:45;;;;;;;6.95;2.10;;;26.50;74.30;;;;;;4995448;23;20036;-93
2021/06/12 13:29:37;;;;;;;6.18;1.77;;;27.30;73.80;;;;;;4978122;23;20064;-91
2021/06/12 13:45:04;;;;;;;5.10;1.80;;;28.40;69.30;;;;;;4916889;29;20069;-92
2021/06/12 14:07:09;;;;;;;7.72;1.88;;;29.90;64.30;;;;;;5554692;23;20026;-92
2021/06/12 14:09:51;;;;;;;6.93;1.80;;;30.20;63.60;;;;;;4902683;23;20053;-91
2021/06/12 14:40:20;;;;;;;7.07;1.60;;;31.40;59.60;;;;;;4907166;29;20052;-95
2021/06/12 14:43:23;;;;;;;9.47;1.70;;;31.40;58.80;;;;;;4870293;29;20055;-95
2021/06/12 14:46:38;;;;;;;10.03;2.40;;;31.50;59.50;;;;;;4886095;29;20267;-95